Tiempo atmosférico en la estación meteorológica de Mollerussa, Lleida (250 m.)



Fecha
DESCASC
Temp. máxima en grados centígrados (hora)
DESCASC
Temp. mínima en grados centígrados (hora)
DESCASC
Temp. media en grados centígrados
DESCASC
Racha de viento máxima en m/sg (hora)
DESCASC
Velocidad máxima media en intervalos de 10 minutos(hora)
DESCASC
Precipitaciones diarias en mm
DESCASC
Precipitaciones de 00:00 a 06:00 en mm
DESCASC
Precipitaciones de 06:00 a 12:00 en mm
DESCASC
Precipitaciones de 12:00 a 18:00 en mm
DESCASC
Precipitaciones de 18:00 a 24:00 en mm
DESCASC
13-01-2021 4.1 (14:30) -3.8 (01:30) 0.1 3.06 (15:20) 1.67 (15:20) 0 0 0 0 0
12-01-2021 4 (16:10) -7.4 (08:20) -1.7 5 (13:20) 3.06 (13:20) 0 0 0 0 0
11-01-2021 2.6 (15:30) -4.7 (23:50) -1 6.67 (00:30) 3.06 (01:00) 0 0 0 0 0
10-01-2021 1 (14:00) 0.2 (07:50) 0.6 5.83 (03:20) 2.78 (03:20) 13 7.2 3.4 2.2 0.2
09-01-2021 1 (11:50) -0.8 (-00:0) 0.1 5.28 (15:50) 3.06 (22:20) 25 2.8 5.2 3.6 13.4
08-01-2021 2 (14:00) -2.5 (-00:0) -0.3 3.89 (13:40) 1.94 (13:20) 0 0 0 0 0
07-01-2021 0.4 (22:00) -5.2 (-00:0) -2.4 4.17 (14:50) 2.22 (11:30) 0 0 0 0 0
06-01-2021 0.2 (16:10) -5.9 (-00:0) -2.9 3.33 (12:40) 1.67 (13:40) 0 0 0 0 0
05-01-2021 4.2 (16:30) -3.8 (-00:0) 0.2 5 (02:00) 3.33 (01:30) 0 0 0 0 0
04-01-2021 7.2 (15:00) -2.4 (-00:0) 2.4 6.67 (16:10) 4.17 (04:30) 0 0 0 0 0
03-01-2021 8.8 (15:40) -1.2 (-00:0) 3.8 8.61 (16:00) 5 (04:10) 0 0 0 0 0
02-01-2021 7.1 (16:20) -0.4 (00:00) 3.3 8.89 (21:20) 5.28 (21:50) 0 0 0 0 0
01-01-2021 7.6 (15:50) 2.5 (00:00) 5 6.94 (18:10) 4.17 (18:50) 0 0 0 0 0
31-12-2020 9.2 (14:10) -1.3 (-00:0) 3.9 6.39 (13:50) 3.61 (13:50) 0 0 0 0 0
30-12-2020 10.3 (14:40) 1.8 (00:00) 6.1 10.28 (13:40) 6.11 (00:40) 0 0 0 0 0
29-12-2020 10.2 (15:00) 2.5 (00:00) 6.3 11.94 (15:40) 6.94 (15:30) 0 0 0 0 0
28-12-2020 10.5 (14:30) -0.9 (-00:0) 4.8 13.33 (12:20) 7.78 (09:00) 0.6 0.6 0 0 0
27-12-2020 2.8 (14:00) -3 (-00:0) -0.1 5 (23:20) 2.5 (00:10) 0 0 0 0 0
26-12-2020 8.4 (14:00) 0 (00:00) 4.2 9.72 (04:50) 6.11 (04:40) 0 0 0 0 0
25-12-2020 -- (--) -- (--) -- -- (--) -- (--) -- -- -- 0 0
24-12-2020 11.4 (16:10) 5 (00:00) 8.2 -- (--) -- (--) -- 0.2 0 0 --
23-12-2020 7.3 (15:10) 2.7 (00:00) 5 2.78 (14:10) 1.39 (11:50) 0.2 0.2 0 0 0
22-12-2020 6 (15:10) 2.3 (00:00) 4.1 2.78 (20:20) 1.94 (20:20) 0 0 0 0 0
21-12-2020 -- (--) -- (--) -- -- (--) -- (--) -- 0 -- 0 0
20-12-2020 10.3 (15:40) 3.7 (00:00) 7 6.67 (13:40) 3.89 (13:30) 3.2 3 0.2 0 0
19-12-2020 7.9 (16:00) 4.9 (00:00) 6.4 3.61 (02:40) 1.94 (02:40) 1.4 0 0 0 1.4
18-12-2020 6.6 (16:30) 4.4 (00:00) 5.5 2.78 (13:30) 1.39 (02:10) 0.2 0 0.2 0 0

Gráficas

Temp. máximas Temp. mínimas Temp. medias Precipitaciones Rachas de viento máximas Velocidades máximas media en intervalos de 10 minutos

Datos horarios

Fecha y hora oficial Temperatura (ºC) Velocidad del viento (km/h) Dirección del viento Racha (km/h) Dirección de racha Precipitación (mm) Presión (hPa) Tendencia (hPa) Humedad (%)
2021-01-16 23:00:00 1.2 3 Oeste 5 Sudeste 0 -- -- 92
2021-01-16 22:00:00 1.8 3 Sudeste 5 Sudeste 0 -- -- 90
2021-01-16 21:00:00 2.6 4 Sur 6 Sudeste 0 -- -- 89
2021-01-16 20:00:00 3.6 4 Sudeste 6 Sudeste 0 -- -- 87
2021-01-16 19:00:00 4.9 4 Oeste 5 Oeste 0 -- -- 84
2021-01-16 18:00:00 7.3 5 Oeste 9 Noroeste 0 -- -- 76
2021-01-16 17:00:00 8.9 6 Oeste 17 Oeste 0 -- -- 70
2021-01-16 16:00:00 9.8 8 Oeste 21 Oeste 0 -- -- 67
2021-01-16 15:00:00 9.3 15 Oeste 24 Oeste 0 -- -- 67
2021-01-16 14:00:00 8.7 11 Oeste 19 Oeste 0 -- -- 72
2021-01-16 13:00:00 7.3 9 Oeste 15 Oeste 0 -- -- 79
2021-01-16 12:00:00 5.5 5 Noroeste 12 Noroeste 0 -- -- 88
2021-01-16 11:00:00 3.1 3 Norte 6 Norte 0 -- -- 94
2021-01-16 10:00:00 0.6 2 Sudeste 4 Oeste 0 -- -- 99
2021-01-16 09:00:00 -2.3 0 Calma 7 Norte 0 -- -- 98
2021-01-16 08:00:00 -2.4 2 Este 5 Sur 0 -- -- 97
2021-01-16 07:00:00 -1.9 3 Sur 5 Sudeste 0 -- -- 97
2021-01-16 06:00:00 -1.4 3 Oeste 5 Noroeste 0 -- -- 95
2021-01-16 05:00:00 0 5 Noroeste 12 Oeste 0 -- -- 93
2021-01-16 04:00:00 1.4 3 Sur 19 Oeste 0 -- -- 92
2021-01-16 03:00:00 0.1 3 Sudeste 8 Este 0 -- -- 93
2021-01-16 02:00:00 2.1 4 Nordeste 18 Oeste 0 -- -- 90
2021-01-16 01:00:00 1.1 6 Oeste 14 Oeste 0 -- -- 95
2021-01-16 00:00:00 1.7 7 Oeste 17 Oeste 0 -- -- 94
2021-01-15 23:00:00 3.6 12 Oeste 20 Sudoeste 0 -- -- 92
2021-01-15 22:00:00 0.7 4 Sur 7 Sudeste 0 -- -- 96
2021-01-15 21:00:00 1.4 4 Sudeste 10 Oeste 0 -- -- 95
2021-01-15 20:00:00 2 5 Sudoeste 9 Oeste 0 -- -- 95
2021-01-15 19:00:00 3.4 0 Calma 9 Sudeste 0 -- -- 92
2021-01-15 18:00:00 5.1 6 Sudeste 9 Sudeste 0 -- -- 90
2021-01-15 17:00:00 6.2 5 Este 11 Este 0 -- -- 89
2021-01-15 16:00:00 6.6 6 Este 18 Este 0 -- -- 87
2021-01-15 15:00:00 9.6 5 Norte 12 Nordeste 0 -- -- 80
2021-01-15 14:00:00 9 8 Oeste 17 Oeste 0 -- -- 83
2021-01-15 13:00:00 6.2 5 Oeste 11 Oeste 0 -- -- 100
2021-01-15 12:00:00 3.3 4 Sudoeste 9 Oeste 0 -- -- 100
2021-01-15 11:00:00 2.2 3 Noroeste 8 Noroeste 0 -- -- 100
2021-01-15 10:00:00 1.6 5 Oeste 8 Oeste 0 -- -- 100
2021-01-15 09:00:00 1.7 3 Noroeste 9 Norte 0 -- -- 100
2021-01-15 08:00:00 1.6 2 Noroeste 8 Oeste 0 -- -- 100
2021-01-15 07:00:00 1.9 3 Noroeste 9 Oeste 0 -- -- 100
2021-01-15 06:00:00 1.9 0 Calma 6 Oeste 0 -- -- 100
2021-01-15 05:00:00 1.8 3 Sur 6 Sudeste 0 -- -- 100
2021-01-15 04:00:00 1.8 2 Este 5 Sudeste 0 -- -- 100
2021-01-15 03:00:00 1.8 2 Nordeste 4 Nordeste 0 -- -- 100
2021-01-15 02:00:00 1.6 2 Norte 5 Norte 0 -- -- 100
2021-01-15 01:00:00 1.5 0 Calma 4 Norte 0 -- -- 100
2021-01-15 00:00:00 1.3 3 Sur 4 Sudeste 0 -- -- 100
2021-01-14 23:00:00 1 4 Sur 7 Sur 0 -- -- 100
2021-01-14 22:00:00 1.3 4 Sudoeste 9 Sudeste 0 -- -- 100
2021-01-14 21:00:00 1.4 6 Sudeste 10 Sudeste 0 -- -- 99
2021-01-14 20:00:00 1.4 5 Sudeste 9 Sudeste 0 -- -- 99
2021-01-14 19:00:00 1.7 5 Sudeste 13 Sudeste 0 -- -- 98
2021-01-14 18:00:00 2.2 6 Sudeste 13 Sudeste 0 -- -- 96
2021-01-14 17:00:00 3.2 8 Sudeste 13 Este 0 -- -- 91
2021-01-14 16:00:00 4.4 4 Nordeste 13 Nordeste 0 -- -- 91
2021-01-14 15:00:00 4.4 4 Norte 11 Norte 0 -- -- 92
2021-01-14 14:00:00 4.4 3 Noroeste 11 Noroeste 0 -- -- 94
2021-01-14 13:00:00 3.7 8 Noroeste 14 Noroeste 0 -- -- 95
2021-01-14 12:00:00 3 5 Noroeste 15 Oeste 0 -- -- 99
2021-01-14 11:00:00 2 9 Oeste 16 Oeste 0 -- -- 100
2021-01-14 10:00:00 1.2 6 Noroeste 14 Oeste 0 -- -- 100
2021-01-14 09:00:00 0.7 8 Oeste 13 Oeste 0 -- -- 99
2021-01-14 08:00:00 0.9 7 Oeste 13 Oeste 0 -- -- 99
2021-01-14 07:00:00 0.6 0 Calma 6 Oeste 0 -- -- 99
2021-01-14 06:00:00 0.9 5 Oeste 8 Oeste 0 -- -- 99
2021-01-14 05:00:00 0.5 4 Oeste 5 Oeste 0 -- -- 100
2021-01-14 04:00:00 0 0 Calma 7 Norte 0 -- -- 99
2021-01-14 03:00:00 0.7 4 Oeste 6 Oeste 0 -- -- 100
2021-01-14 02:00:00 -0.2 3 Sur 4 Sur 0 -- -- 99
2021-01-14 01:00:00 -0.9 0 Calma 5 Oeste 0 -- -- 99
2021-01-14 00:00:00 -1.9 3 Oeste 6 Sudeste 0 -- -- 98
2021-01-13 23:00:00 -1.6 0 Calma 4 Sudoeste 0 -- -- 97
2021-01-13 22:00:00 -0.9 0 Calma 5 Norte 0 -- -- 96
2021-01-13 21:00:00 -0.2 3 Sur 7 Sudeste 0 -- -- 96
2021-01-13 20:00:00 0.4 5 Sudeste 7 Sudeste 0 -- -- 95
2021-01-13 19:00:00 0.9 4 Sudeste 9 Este 0 -- -- 93
2021-01-13 18:00:00 2 3 Este 11 Este 0 -- -- 91
2021-01-13 17:00:00 3.3 5 Este 10 Este 0 -- -- 86
2021-01-13 16:00:00 3.9 5 Nordeste 11 Nordeste 0 -- -- 86
2021-01-13 15:00:00 4.1 5 Nordeste 10 Norte 0 -- -- 84
2021-01-13 14:00:00 3.5 4 Noroeste 7 Noroeste 0 -- -- 84
2021-01-13 13:00:00 2.8 3 Norte 5 Noroeste 0 -- -- 88
2021-01-13 12:00:00 1.8 2 Nordeste 4 Nordeste 0 -- -- 95
2021-01-13 11:00:00 0.8 2 Norte 4 Norte 0 -- -- 97
2021-01-13 10:00:00 0.1 2 Sur 5 Sudeste 0 -- -- 99
2021-01-13 09:00:00 -1 0 Calma 6 Noroeste 0 -- -- 99
2021-01-13 08:00:00 -2.6 4 Oeste 8 Oeste 0 -- -- 98
2021-01-13 07:00:00 -3.1 3 Nordeste 7 Noroeste 0 -- -- 97
2021-01-13 06:00:00 -1.8 4 Oeste 10 Oeste 0 -- -- 98
2021-01-13 05:00:00 -2.7 3 Sudeste 8 Norte 0 -- -- 98
2021-01-13 04:00:00 -2 4 Oeste 8 Oeste 0 -- -- 98
2021-01-13 03:00:00 -3 2 Sudoeste 7 Sudoeste 0 -- -- 98
2021-01-13 02:00:00 -3.5 4 Sur 6 Sur 0 -- -- 96
2021-01-13 01:00:00 -3.6 3 Sur 6 Oeste 0 -- -- 95
2021-01-13 00:00:00 -3 3 Sur 7 Norte 0 -- -- 95
2021-01-12 23:00:00 -2.3 3 Oeste 6 Norte 0 -- -- 94
2021-01-12 22:00:00 -1 5 Noroeste 13 Oeste 0 -- -- 94
2021-01-12 21:00:00 -3 6 Sur 9 Sur 0 -- -- 92
2021-01-12 20:00:00 -2.4 4 Sur 6 Sur 0 -- -- 90
2021-01-12 19:00:00 -1.4 3 Sudeste 6 Sudeste 0 -- -- 87
2021-01-12 18:00:00 0.2 4 Este 9 Sudeste 0 -- -- 84
2021-01-12 17:00:00 3.1 0 Calma 8 Noroeste 0 -- -- 77
2021-01-12 16:00:00 3.9 4 Oeste 14 Oeste 0 -- -- 76
2021-01-12 15:00:00 2.6 3 Norte 12 Noroeste 0 -- -- 80
2021-01-12 14:00:00 2.1 6 Noroeste 18 Oeste 0 -- -- 80
2021-01-12 13:00:00 1.2 6 Oeste 12 Oeste 0 -- -- 81
2021-01-12 12:00:00 0.3 4 Noroeste 8 Noroeste 0 -- -- 84
2021-01-12 11:00:00 -1 3 Norte 5 Norte 0 -- -- 89
2021-01-12 10:00:00 -2.6 0 Calma 4 Sur 0 -- -- 97
2021-01-12 09:00:00 -6.8 3 Sur 5 Sur 0 -- -- 96
2021-01-12 08:00:00 -7.3 3 Sur 5 Sur 0 -- -- 95
2021-01-12 07:00:00 -7.1 4 Sur 5 Sur 0 -- -- 95
2021-01-12 06:00:00 -7.1 4 Oeste 5 Oeste 0 -- -- 94
2021-01-12 05:00:00 -6.7 4 Sur 5 Sudeste 0 -- -- 94
2021-01-12 04:00:00 -6.4 3 Sudeste 6 Sudeste 0 -- -- 93
2021-01-12 03:00:00 -5.7 2 Sur 8 Oeste 0 -- -- 92
2021-01-12 02:00:00 -4.7 2 Sudeste 7 Oeste 0 -- -- 91
2021-01-12 01:00:00 -3.3 5 Oeste 11 Oeste 0 -- -- 93
2021-01-12 00:00:00 -3.9 5 Oeste 9 Oeste 0 -- -- 95
2021-01-11 23:00:00 -4.1 0 Calma 6 Sudoeste 0 -- -- 92
2021-01-11 22:00:00 -3.1 0 Calma 7 Sudoeste 0 -- -- 90
2021-01-11 21:00:00 -2 5 Sudoeste 12 Sudoeste 0 -- -- 89
2021-01-11 20:00:00 -1.6 8 Sudoeste 14 Sudoeste 0 -- -- 88
2021-01-11 19:00:00 -1.1 8 Sudoeste 14 Sudoeste 0 -- -- 84
2021-01-11 18:00:00 -0.3 8 Sudoeste 14 Sudoeste 0 -- -- 83
2021-01-11 17:00:00 1.1 9 Oeste 17 Oeste 0 -- -- 81
2021-01-11 16:00:00 2.4 9 Oeste 17 Sudoeste 0 -- -- 74
2021-01-11 15:00:00 2.4 10 Oeste 15 Oeste 0 -- -- 74
2021-01-11 14:00:00 1.9 10 Oeste 16 Oeste 0 -- -- 77
2021-01-11 13:00:00 1.6 6 Oeste 16 Oeste 0 -- -- 80
2021-01-11 12:00:00 1.1 8 Oeste 15 Oeste 0 -- -- 81
2021-01-11 11:00:00 0.3 8 Oeste 13 Oeste 0 -- -- 84
2021-01-11 10:00:00 -0.3 6 Oeste 12 Sudoeste 0 -- -- 87
2021-01-11 09:00:00 -0.8 5 Sudoeste 18 Sudoeste 0 -- -- 88
2021-01-11 08:00:00 -0.9 8 Sudoeste 18 Oeste 0 -- -- 89
2021-01-11 07:00:00 -0.7 8 Sudoeste 19 Sudoeste 0 -- -- 90
2021-01-11 06:00:00 -0.4 10 Sudoeste 20 Oeste 0 -- -- 92
2021-01-11 05:00:00 -0.2 9 Oeste 19 Sudoeste 0 -- -- 93
2021-01-11 04:00:00 0.2 11 Sudoeste 19 Oeste 0 -- -- 94
2021-01-11 03:00:00 0.5 8 Oeste 19 Oeste 0 -- -- 95
2021-01-11 02:00:00 0.6 9 Oeste 20 Sudoeste 0 -- -- 96
2021-01-11 01:00:00 0.7 11 Sudoeste 24 Sudoeste 0 -- -- 98
2021-01-11 00:00:00 0.7 8 Sudoeste 19 Oeste 0 -- -- 99
2021-01-10 23:00:00 0.6 7 Oeste 14 Oeste 0 -- -- 100
2021-01-10 22:00:00 0.7 6 Sudoeste 12 Oeste 0.2 -- -- 100
2021-01-10 21:00:00 0.8 5 Sudoeste 12 Sudoeste 0 -- -- 100
2021-01-10 20:00:00 0.8 5 Sudoeste 13 Sudoeste 0 -- -- 100
2021-01-10 19:00:00 0.6 7 Oeste 12 Oeste 0 -- -- 100
2021-01-10 18:00:00 0.6 6 Oeste 13 Oeste 0.2 -- -- 100
2021-01-10 17:00:00 0.6 8 Oeste 14 Oeste 0.2 -- -- 100
2021-01-10 16:00:00 0.8 6 Sudoeste 13 Oeste 0.8 -- -- 100
2021-01-10 15:00:00 1 6 Oeste 16 Sudoeste 0.6 -- -- 100
2021-01-10 14:00:00 1 8 Oeste 15 Oeste 0.2 -- -- 100
2021-01-10 13:00:00 0.9 7 Oeste 14 Oeste 0.2 -- -- 100
2021-01-10 12:00:00 0.7 8 Oeste 15 Oeste 0.4 -- -- 100
2021-01-10 11:00:00 0.6 8 Oeste 17 Oeste 0 -- -- 100
2021-01-10 10:00:00 0.5 8 Sudoeste 15 Oeste 0.2 -- -- 100
2021-01-10 09:00:00 0.3 7 Sudoeste 13 Oeste 0.4 -- -- 100
2021-01-10 08:00:00 0.2 6 Sudoeste 12 Oeste 1.6 -- -- 100
2021-01-10 07:00:00 0.4 6 Sudoeste 14 Oeste 0.8 -- -- 100
2021-01-10 06:00:00 0.4 8 Sudoeste 18 Sudoeste 0.8 -- -- 100
2021-01-10 05:00:00 0.4 8 Sudoeste 18 Sudoeste 0.6 -- -- 100
2021-01-10 04:00:00 0.4 10 Sudoeste 21 Sudoeste 1 -- -- 100
2021-01-10 03:00:00 0.4 9 Oeste 16 Oeste 0.8 -- -- 100
2021-01-10 02:00:00 0.3 10 Oeste 17 Sudoeste 1.2 -- -- 100
2021-01-10 01:00:00 0.4 5 Sudoeste 13 Oeste 2.8 -- -- 100
2021-01-10 00:00:00 0.4 10 Oeste 17 Oeste 3.6 -- -- 100
2021-01-09 23:00:00 0.3 10 Oeste 17 Oeste 4.4 -- -- 100
2021-01-09 22:00:00 0.3 10 Oeste 17 Sudoeste 1.6 -- -- 100
2021-01-09 21:00:00 0.3 8 Sudoeste 14 Sudoeste 1.2 -- -- 100
2021-01-09 20:00:00 0.2 9 Sudoeste 16 Sudoeste 1.2 -- -- 100
2021-01-09 19:00:00 0.3 5 Sudoeste 12 Sudoeste 1.4 -- -- 99
2021-01-09 18:00:00 0.3 5 Oeste 15 Oeste 1 -- -- 99
2021-01-09 17:00:00 0.3 8 Oeste 18 Oeste 1.4 -- -- 98
2021-01-09 16:00:00 0.7 10 Sudoeste 19 Sudoeste 0.2 -- -- 97
2021-01-09 15:00:00 1 7 Sudoeste 14 Sudoeste 0 -- -- 97
2021-01-09 14:00:00 0.9 7 Oeste 11 Sudoeste 0.6 -- -- 97
2021-01-09 13:00:00 0.6 7 Oeste 14 Oeste 0.4 -- -- 98
2021-01-09 12:00:00 0.9 5 Oeste 8 Oeste 0.8 -- -- 97
2021-01-09 11:00:00 0.1 3 Sudoeste 10 Sudoeste 1.2 -- -- 98
2021-01-09 10:00:00 -0.3 4 Sudoeste 9 Sudoeste 0.4 -- -- 98
2021-01-09 09:00:00 -0.7 3 Sudoeste 8 Sudoeste 0.2 -- -- 98
2021-01-09 08:00:00 -0.8 2 Oeste 6 Sudoeste 1.2 -- -- 98
2021-01-09 07:00:00 -0.7 2 Sudoeste 4 Sudoeste 1.4 -- -- 98
2021-01-09 06:00:00 -0.7 0 Calma 4 Norte 1.4 -- -- 98
2021-01-09 05:00:00 -0.7 0 Calma 5 Norte 0.8 -- -- 98
2021-01-09 04:00:00 -0.6 3 Norte 5 Norte 0.2 -- -- 97
2021-01-09 03:00:00 -0.4 3 Oeste 4 Oeste 0.4 -- -- 96
2021-01-09 02:00:00 -0.1 2 Sudoeste 4 Oeste 0 -- -- 94
2021-01-09 01:00:00 0 4 Sur 6 Sur 0 -- -- 92
2021-01-09 00:00:00 0.1 3 Nordeste 6 Norte 0 -- -- 91
2021-01-08 23:00:00 0.1 0 Calma 6 Sudeste 0 -- -- 89
2021-01-08 22:00:00 0.2 4 Sudeste 8 Sudeste 0 -- -- 89
2021-01-08 21:00:00 0.2 4 Nordeste 6 Nordeste 0 -- -- 88
2021-01-08 20:00:00 0.3 0 Calma 4 Norte 0 -- -- 87
2021-01-08 19:00:00 0.6 3 Norte 5 Oeste 0 -- -- 85
2021-01-08 18:00:00 1 3 Oeste 5 Oeste 0 -- -- 81
2021-01-08 17:00:00 1.4 2 Oeste 7 Oeste 0 -- -- 77
2021-01-08 16:00:00 1.8 5 Oeste 8 Oeste 0 -- -- 76
2021-01-08 15:00:00 1.7 4 Noroeste 10 Noroeste 0 -- -- 80
2021-01-08 14:00:00 2 6 Oeste 14 Oeste 0 -- -- 77
2021-01-08 13:00:00 1.5 5 Noroeste 12 Oeste 0 -- -- 79
2021-01-08 12:00:00 0.2 4 Noroeste 9 Oeste 0 -- -- 86
2021-01-08 11:00:00 -0.9 3 Oeste 9 Oeste 0 -- -- 95
2021-01-08 10:00:00 -1.2 5 Oeste 9 Oeste 0 -- -- 98
2021-01-08 09:00:00 -1.9 0 Calma 7 Oeste 0 -- -- 98
2021-01-08 08:00:00 -1.5 4 Oeste 9 Oeste 0 -- -- 98
2021-01-08 07:00:00 -1.8 3 Sudoeste 6 Sudoeste 0 -- -- 97
2021-01-08 06:00:00 -2.1 0 Calma 3 Sur 0 -- -- 96
2021-01-08 05:00:00 -2 2 Sur 5 Sudeste 0 -- -- 96
2021-01-08 04:00:00 -2.4 3 Sur 4 Sur 0 -- -- 94
2021-01-08 03:00:00 -1.4 0 Calma 2 Sur 0 -- -- 95
2021-01-08 02:00:00 -1.3 2 Sudeste 4 Sudeste 0 -- -- 94
2021-01-08 01:00:00 -1.3 -- -- -- -- 0 -- -- 93
2021-01-08 00:00:00 -0.6 0 Calma 2 Oeste 0 -- -- 91
2021-01-07 23:00:00 0.2 0 Calma 9 Sudoeste 0 -- -- 89
2021-01-07 22:00:00 0.4 7 Oeste 13 Oeste 0 -- -- 90
2021-01-07 21:00:00 0.3 2 Noroeste 13 Sudoeste 0 -- -- 91
2021-01-07 20:00:00 0.2 5 Sudoeste 12 Sudoeste 0 -- -- 92
2021-01-07 19:00:00 0.2 4 Oeste 10 Sudoeste 0 -- -- 92
2021-01-07 18:00:00 0.2 5 Oeste 13 Oeste 0 -- -- 91
2021-01-07 17:00:00 0.2 8 Oeste 15 Sudoeste 0 -- -- 89
2021-01-07 16:00:00 0.1 5 Oeste 12 Oeste 0 -- -- 89
2021-01-07 15:00:00 0 8 Oeste 15 Oeste 0 -- -- 90
2021-01-07 14:00:00 -0.6 4 Sudoeste 10 Oeste 0 -- -- 94
2021-01-07 13:00:00 -1 5 Sudoeste 14 Oeste 0 -- -- 95
2021-01-07 12:00:00 -1.5 4 Oeste 13 Oeste 0 -- -- 95
2021-01-07 11:00:00 -1.9 4 Sudoeste 8 Sudoeste 0 -- -- 96
2021-01-07 10:00:00 -2.9 0 Calma 6 Noroeste 0 -- -- 97
2021-01-07 09:00:00 -3.9 3 Noroeste 5 Noroeste 0 -- -- 96
2021-01-07 08:00:00 -4.3 4 Oeste 5 Oeste 0 -- -- 96
2021-01-07 07:00:00 -4.4 3 Sur 5 Sur 0 -- -- 95
2021-01-07 06:00:00 -4.3 0 Calma 5 Sudoeste 0 -- -- 95
2021-01-07 05:00:00 -4.2 2 Sudoeste 5 Noroeste 0 -- -- 95
2021-01-07 04:00:00 -4.1 3 Noroeste 5 Noroeste 0 -- -- 96
2021-01-07 03:00:00 -4.3 3 Norte 7 Sudeste 0 -- -- 96
2021-01-07 02:00:00 -4.7 4 Este 6 Este 0 -- -- 96
2021-01-07 01:00:00 -5.1 3 Sudeste 5 Sudeste 0 -- -- 95
2021-01-07 00:00:00 -4.8 3 Sudeste 5 Sudeste 0 -- -- 95
2021-01-06 23:00:00 -4.6 3 Sur 6 Este 0 -- -- 95
2021-01-06 22:00:00 -3.9 3 Sudeste 5 Este 0 -- -- 96
2021-01-06 21:00:00 -3.4 2 Sudeste 6 Este 0 -- -- 96
2021-01-06 20:00:00 -3 2 Sudeste 6 Este 0 -- -- 95
2021-01-06 19:00:00 -2.1 2 Este 9 Nordeste 0 -- -- 94
2021-01-06 18:00:00 -1.5 3 Nordeste 9 Nordeste 0 -- -- 93
2021-01-06 17:00:00 -0.3 3 Noroeste 7 Nordeste 0 -- -- 90
2021-01-06 16:00:00 0.1 3 Norte 8 Nordeste 0 -- -- 91
2021-01-06 15:00:00 -0.3 3 Noroeste 9 Norte 0 -- -- 93
2021-01-06 14:00:00 -0.4 4 Noroeste 9 Noroeste 0 -- -- 95
2021-01-06 13:00:00 -0.8 5 Noroeste 12 Noroeste 0 -- -- 96
2021-01-06 12:00:00 -1.2 4 Noroeste 7 Noroeste 0 -- -- 97
2021-01-06 11:00:00 -1.7 4 Norte 6 Norte 0 -- -- 98
2021-01-06 10:00:00 -2.2 3 Sudoeste 7 Oeste 0 -- -- 99
2021-01-06 09:00:00 -4 3 Sur 5 Sur 0 -- -- 98
2021-01-06 08:00:00 -5.2 2 Sur 5 Noroeste 0 -- -- 97
2021-01-06 07:00:00 -5.8 0 Calma 3 Noroeste 0 -- -- 96
2021-01-06 06:00:00 -5.5 2 Sur 7 Sudoeste 0 -- -- 95
2021-01-06 05:00:00 -5.3 2 Sudoeste 6 Sudoeste 0 -- -- 95
2021-01-06 04:00:00 -5.3 3 Sudoeste 7 Oeste 0 -- -- 95
2021-01-06 03:00:00 -4.9 3 Noroeste 5 Sudeste 0 -- -- 95
2021-01-06 02:00:00 -4.7 0 Calma 4 Sur 0 -- -- 94
2021-01-06 01:00:00 -4 2 Sudoeste 4 Sur 0 -- -- 95
2021-01-06 00:00:00 -3.8 3 Sur 5 Sur 0 -- -- 93
2021-01-05 23:00:00 -3 4 Sudeste 5 Sudeste 0 -- -- 93
2021-01-05 22:00:00 -2.5 0 Calma 6 Sudeste 0 -- -- 92
2021-01-05 21:00:00 -1.7 2 Sudeste 8 Sudeste 0 -- -- 91
2021-01-05 20:00:00 -1 4 Sudeste 9 Este 0 -- -- 88
2021-01-05 19:00:00 0.3 4 Nordeste 8 Este 0 -- -- 86
2021-01-05 18:00:00 1.5 2 Nordeste 10 Nordeste 0 -- -- 83
2021-01-05 17:00:00 3.4 5 Norte 9 Norte 0 -- -- 79
2021-01-05 16:00:00 4 3 Norte 8 Norte 0 -- -- 77
2021-01-05 15:00:00 3.2 3 Nordeste 11 Norte 0 -- -- 81
2021-01-05 14:00:00 2.1 4 Norte 12 Noroeste 0 -- -- 84
2021-01-05 13:00:00 1.6 4 Noroeste 12 Oeste 0 -- -- 86
2021-01-05 12:00:00 1.2 4 Noroeste 13 Oeste 0 -- -- 88
2021-01-05 11:00:00 0.6 4 Oeste 9 Oeste 0 -- -- 91
2021-01-05 10:00:00 -0.2 3 Noroeste 6 Noroeste 0 -- -- 93
2021-01-05 09:00:00 -0.3 3 Sudoeste 8 Sudoeste 0 -- -- 93
2021-01-05 08:00:00 -0.3 3 Sudoeste 7 Sudoeste 0 -- -- 94
2021-01-05 07:00:00 -0.5 0 Calma 5 Noroeste 0 -- -- 94
2021-01-05 06:00:00 -0.6 3 Noroeste 12 Oeste 0 -- -- 92
2021-01-05 05:00:00 0.2 7 Noroeste 14 Oeste 0 -- -- 92
2021-01-05 04:00:00 0.1 0 Calma 12 Oeste 0 -- -- 90
2021-01-05 03:00:00 0.4 9 Oeste 17 Oeste 0 -- -- 91
2021-01-05 02:00:00 0.2 10 Oeste 18 Oeste 0 -- -- 91
2021-01-05 01:00:00 0.2 8 Sudoeste 17 Oeste 0 -- -- 88
2021-01-05 00:00:00 0.4 8 Sudoeste 14 Sudoeste 0 -- -- 85
2021-01-04 23:00:00 -0.1 4 Sudoeste 8 Sudoeste 0 -- -- 85
2021-01-04 22:00:00 0.5 4 Oeste 11 Oeste 0 -- -- 81
2021-01-04 21:00:00 1.6 6 Sudoeste 15 Oeste 0 -- -- 78
2021-01-04 20:00:00 2.5 10 Oeste 19 Oeste 0 -- -- 76
2021-01-04 19:00:00 3 12 Oeste 18 Oeste 0 -- -- 74
2021-01-04 18:00:00 4.1 8 Oeste 14 Oeste 0 -- -- 73
2021-01-04 17:00:00 5.9 10 Oeste 24 Oeste 0 -- -- 67
2021-01-04 16:00:00 6.9 9 Oeste 17 Oeste 0 -- -- 65
2021-01-04 15:00:00 7.2 7 Noroeste 15 Oeste 0 -- -- 68
2021-01-04 14:00:00 6 5 Oeste 13 Noroeste 0 -- -- 75
2021-01-04 13:00:00 5 5 Noroeste 10 Oeste 0 -- -- 79
2021-01-04 12:00:00 3.3 3 Norte 8 Nordeste 0 -- -- 86
2021-01-04 11:00:00 2.3 4 Norte 12 Norte 0 -- -- 89
2021-01-04 10:00:00 1.3 2 Sur 4 Sudeste 0 -- -- 95
2021-01-04 09:00:00 -2.2 0 Calma 3 Oeste 0 -- -- 94
2021-01-04 08:00:00 -1.5 2 Norte 5 Oeste 0 -- -- 92
2021-01-04 07:00:00 0 6 Oeste 12 Sudoeste 0 -- -- 92
2021-01-04 06:00:00 0.5 6 Oeste 18 Sudoeste 0 -- -- 91
2021-01-04 05:00:00 1 13 Oeste 22 Oeste 0 -- -- 90
2021-01-04 04:00:00 1.3 14 Oeste 20 Oeste 0 -- -- 86
2021-01-04 03:00:00 1.5 9 Sudoeste 18 Oeste 0 -- -- 83
2021-01-04 02:00:00 1.3 9 Oeste 16 Oeste 0 -- -- 83
2021-01-04 01:00:00 1.4 8 Sudoeste 19 Oeste 0 -- -- 81
2021-01-04 00:00:00 1.3 6 Oeste 13 Oeste 0 -- -- 81
2021-01-03 23:00:00 2.3 6 Oeste 21 Sudoeste 0 -- -- 78
2021-01-03 22:00:00 3.7 15 Oeste 28 Oeste 0 -- -- 73
2021-01-03 21:00:00 3.5 10 Sudoeste 21 Sudoeste 0 -- -- 75
2021-01-03 20:00:00 4 10 Sudoeste 21 Oeste 0 -- -- 74
2021-01-03 19:00:00 4.9 12 Oeste 21 Oeste 0 -- -- 70
2021-01-03 18:00:00 5.7 10 Oeste 23 Oeste 0 -- -- 69
2021-01-03 17:00:00 7.8 14 Oeste 27 Oeste 0 -- -- 61
2021-01-03 16:00:00 8.7 14 Noroeste 31 Noroeste 0 -- -- 58
2021-01-03 15:00:00 8.3 10 Oeste 23 Sudoeste 0 -- -- 52
2021-01-03 14:00:00 7 14 Oeste 24 Oeste 0 -- -- 56
2021-01-03 13:00:00 5.6 15 Oeste 28 Oeste 0 -- -- 61
2021-01-03 12:00:00 4.5 14 Oeste 28 Oeste 0 -- -- 65
2021-01-03 11:00:00 3 15 Oeste 27 Oeste 0 -- -- 69
2021-01-03 10:00:00 1.2 11 Sudoeste 23 Oeste 0 -- -- 78
2021-01-03 09:00:00 -0.9 6 Sudoeste 22 Sudoeste 0 -- -- 78
2021-01-03 08:00:00 -1.1 12 Sudoeste 28 Oeste 0 -- -- 76
2021-01-03 07:00:00 -0.9 13 Sudoeste 23 Sudoeste 0 -- -- 74
2021-01-03 06:00:00 -0.5 12 Oeste 26 Sudoeste 0 -- -- 72
2021-01-03 05:00:00 0.2 15 Oeste 30 Oeste 0 -- -- 71
2021-01-03 04:00:00 0.4 17 Oeste 29 Sudoeste 0 -- -- 71
2021-01-03 03:00:00 0.9 15 Oeste 26 Sudoeste 0 -- -- 69
2021-01-03 02:00:00 1.1 13 Sudoeste 27 Sudoeste 0 -- -- 67
2021-01-03 01:00:00 1.5 14 Sudoeste 28 Oeste 0 -- -- 65
2021-01-03 00:00:00 1.5 15 Sudoeste 30 Sudoeste 0 -- -- 64
2021-01-02 23:00:00 1.9 15 Sudoeste 30 Sudoeste 0 -- -- 62
2021-01-02 22:00:00 2.5 18 Oeste 32 Sudoeste 0 -- -- 58
2021-01-02 21:00:00 3 18 Oeste 32 Oeste 0 -- -- 58
2021-01-02 20:00:00 3.3 14 Sudoeste 27 Oeste 0 -- -- 58
2021-01-02 19:00:00 4 13 Oeste 22 Sudoeste 0 -- -- 62
2021-01-02 18:00:00 5.1 2 Sudeste 4 Sudeste 0 -- -- 75
2021-01-02 17:00:00 6.9 0 Calma 11 Oeste 0 -- -- 70
2021-01-02 16:00:00 6.9 5 Oeste 18 Oeste 0 -- -- 69
2021-01-02 15:00:00 6.5 11 Oeste 23 Oeste 0 -- -- 68
2021-01-02 14:00:00 6.1 10 Oeste 24 Oeste 0 -- -- 73